sensor_id;sensor_type;location;lat;lon;timestamp;pressure;altitude;pressure_sealevel;temperature;humidity
11468;BME280;5790;42.762;23.430;2023-01-27T00:00:12;61465.97;;;-142.67;100.00
11468;BME280;5790;42.762;23.430;2023-01-27T00:02:41;61465.97;;;-142.67;100.00
11468;BME280;5790;42.762;23.430;2023-01-27T00:05:09;61465.97;;;-142.67;100.00
11468;BME280;5790;42.762;23.430;2023-01-27T00:07:38;61465.97;;;-142.67;100.00
11468;BME280;5790;42.762;23.430;2023-01-27T00:10:14;61465.97;;;-142.67;100.00
11468;BME280;5790;42.762;23.430;2023-01-27T00:12:42;61465.97;;;-142.67;100.00
11468;BME280;5790;42.762;23.430;2023-01-27T00:15:28;61465.97;;;-142.67;100.00
11468;BME280;5790;42.762;23.430;2023-01-27T00:17:56;61465.97;;;-142.67;100.00
11468;BME280;5790;42.762;23.430;2023-01-27T00:20:24;61465.97;;;-142.67;100.00
11468;BME280;5790;42.762;23.430;2023-01-27T00:23:14;61465.97;;;-142.67;100.00
11468;BME280;5790;42.762;23.430;2023-01-27T00:26:02;61465.97;;;-142.67;100.00
11468;BME280;5790;42.762;23.430;2023-01-27T00:28:32;61465.97;;;-142.67;100.00
11468;BME280;5790;42.762;23.430;2023-01-27T00:31:00;61465.97;;;-142.67;100.00
11468;BME280;5790;42.762;23.430;2023-01-27T00:33:29;61465.97;;;-142.67;100.00
11468;BME280;5790;42.762;23.430;2023-01-27T00:35:57;61465.97;;;-142.67;100.00
11468;BME280;5790;42.762;23.430;2023-01-27T00:38:26;61465.97;;;-142.67;100.00
11468;BME280;5790;42.762;23.430;2023-01-27T00:40:54;61465.97;;;-142.67;100.00
11468;BME280;5790;42.762;23.430;2023-01-27T00:43:40;61465.97;;;-142.67;100.00
11468;BME280;5790;42.762;23.430;2023-01-27T00:46:08;61465.97;;;-142.67;100.00
11468;BME280;5790;42.762;23.430;2023-01-27T00:48:35;61465.97;;;-142.67;100.00
11468;BME280;5790;42.762;23.430;2023-01-27T00:51:03;61465.97;;;-142.67;100.00
11468;BME280;5790;42.762;23.430;2023-01-27T00:53:31;61465.97;;;-142.67;100.00
11468;BME280;5790;42.762;23.430;2023-01-27T00:55:58;61465.97;;;-142.67;100.00
11468;BME280;5790;42.762;23.430;2023-01-27T00:58:26;61465.97;;;-142.67;100.00
11468;BME280;5790;42.762;23.430;2023-01-27T01:00:55;61465.97;;;-142.67;100.00
11468;BME280;5790;42.762;23.430;2023-01-27T01:03:24;61465.97;;;-142.67;100.00
11468;BME280;5790;42.762;23.430;2023-01-27T01:05:53;61465.97;;;-142.67;100.00
11468;BME280;5790;42.762;23.430;2023-01-27T01:08:20;61465.97;;;-142.67;100.00
11468;BME280;5790;42.762;23.430;2023-01-27T01:10:48;61465.97;;;-142.67;100.00
11468;BME280;5790;42.762;23.430;2023-01-27T01:13:15;61465.97;;;-142.67;100.00
11468;BME280;5790;42.762;23.430;2023-01-27T01:15:43;61465.97;;;-142.67;100.00
11468;BME280;5790;42.762;23.430;2023-01-27T01:18:12;61465.97;;;-142.67;100.00
11468;BME280;5790;42.762;23.430;2023-01-27T01:20:42;61465.97;;;-142.67;100.00
11468;BME280;5790;42.762;23.430;2023-01-27T01:23:10;61465.97;;;-142.67;100.00
11468;BME280;5790;42.762;23.430;2023-01-27T01:25:38;61465.97;;;-142.67;100.00
11468;BME280;5790;42.762;23.430;2023-01-27T01:28:06;61465.97;;;-142.67;100.00
11468;BME280;5790;42.762;23.430;2023-01-27T01:30:34;61465.97;;;-142.67;100.00
11468;BME280;5790;42.762;23.430;2023-01-27T01:33:03;61465.97;;;-142.67;100.00
11468;BME280;5790;42.762;23.430;2023-01-27T01:35:36;61465.97;;;-142.67;100.00
11468;BME280;5790;42.762;23.430;2023-01-27T01:38:05;61465.97;;;-142.67;100.00
11468;BME280;5790;42.762;23.430;2023-01-27T01:40:33;61465.97;;;-142.67;100.00
11468;BME280;5790;42.762;23.430;2023-01-27T01:43:02;61465.97;;;-142.67;100.00
11468;BME280;5790;42.762;23.430;2023-01-27T01:45:54;61465.97;;;-142.67;100.00
11468;BME280;5790;42.762;23.430;2023-01-27T01:48:31;61465.97;;;-142.67;100.00
11468;BME280;5790;42.762;23.430;2023-01-27T01:51:05;61465.97;;;-142.67;100.00
11468;BME280;5790;42.762;23.430;2023-01-27T01:53:39;61465.97;;;-142.67;100.00
11468;BME280;5790;42.762;23.430;2023-01-27T01:56:11;61465.97;;;-142.67;100.00
11468;BME280;5790;42.762;23.430;2023-01-27T01:58:40;61465.97;;;-142.67;100.00
11468;BME280;5790;42.762;23.430;2023-01-27T02:01:08;61465.97;;;-142.67;100.00
11468;BME280;5790;42.762;23.430;2023-01-27T02:03:37;61465.97;;;-142.67;100.00
11468;BME280;5790;42.762;23.430;2023-01-27T02:06:10;61465.97;;;-142.67;100.00
11468;BME280;5790;42.762;23.430;2023-01-27T02:08:40;61465.97;;;-142.67;100.00
11468;BME280;5790;42.762;23.430;2023-01-27T02:11:09;61465.97;;;-142.67;100.00
11468;BME280;5790;42.762;23.430;2023-01-27T02:13:37;61465.97;;;-142.67;100.00
11468;BME280;5790;42.762;23.430;2023-01-27T02:16:05;61465.97;;;-142.67;100.00
11468;BME280;5790;42.762;23.430;2023-01-27T02:18:34;61465.97;;;-142.67;100.00
11468;BME280;5790;42.762;23.430;2023-01-27T02:21:01;61465.97;;;-142.67;100.00
11468;BME280;5790;42.762;23.430;2023-01-27T02:23:47;61465.97;;;-142.67;100.00
11468;BME280;5790;42.762;23.430;2023-01-27T02:26:19;61465.97;;;-142.67;100.00
11468;BME280;5790;42.762;23.430;2023-01-27T02:28:53;61465.97;;;-142.67;100.00
11468;BME280;5790;42.762;23.430;2023-01-27T02:31:21;61465.97;;;-142.67;100.00
11468;BME280;5790;42.762;23.430;2023-01-27T02:33:49;61465.97;;;-142.67;100.00
11468;BME280;5790;42.762;23.430;2023-01-27T02:36:18;61465.97;;;-142.67;100.00
11468;BME280;5790;42.762;23.430;2023-01-27T02:38:47;61465.97;;;-142.67;100.00
11468;BME280;5790;42.762;23.430;2023-01-27T02:41:19;61465.97;;;-142.67;100.00
11468;BME280;5790;42.762;23.430;2023-01-27T02:43:47;61465.97;;;-142.67;100.00
11468;BME280;5790;42.762;23.430;2023-01-27T02:46:15;61465.97;;;-142.67;100.00
11468;BME280;5790;42.762;23.430;2023-01-27T02:48:42;61465.97;;;-142.67;100.00
11468;BME280;5790;42.762;23.430;2023-01-27T02:51:11;61465.97;;;-142.67;100.00
11468;BME280;5790;42.762;23.430;2023-01-27T02:53:39;61465.97;;;-142.67;100.00
11468;BME280;5790;42.762;23.430;2023-01-27T02:56:06;61465.97;;;-142.67;100.00
11468;BME280;5790;42.762;23.430;2023-01-27T02:58:35;61465.97;;;-142.67;100.00
11468;BME280;5790;42.762;23.430;2023-01-27T03:01:03;61465.97;;;-142.67;100.00
11468;BME280;5790;42.762;23.430;2023-01-27T03:03:30;61465.97;;;-142.67;100.00
11468;BME280;5790;42.762;23.430;2023-01-27T03:05:57;61465.97;;;-142.67;100.00
11468;BME280;5790;42.762;23.430;2023-01-27T03:08:25;61465.97;;;-142.67;100.00
11468;BME280;5790;42.762;23.430;2023-01-27T03:10:53;61465.97;;;-142.67;100.00
11468;BME280;5790;42.762;23.430;2023-01-27T03:13:21;61465.97;;;-142.67;100.00
11468;BME280;5790;42.762;23.430;2023-01-27T03:15:50;61465.97;;;-142.67;100.00
11468;BME280;5790;42.762;23.430;2023-01-27T03:18:35;61465.97;;;-142.67;100.00
11468;BME280;5790;42.762;23.430;2023-01-27T03:21:05;61465.97;;;-142.67;100.00
11468;BME280;5790;42.762;23.430;2023-01-27T03:23:33;61465.97;;;-142.67;100.00
11468;BME280;5790;42.762;23.430;2023-01-27T03:26:04;61465.97;;;-142.67;100.00
11468;BME280;5790;42.762;23.430;2023-01-27T03:28:32;61465.97;;;-142.67;100.00
11468;BME280;5790;42.762;23.430;2023-01-27T03:31:01;61465.97;;;-142.67;100.00
11468;BME280;5790;42.762;23.430;2023-01-27T03:33:29;61465.97;;;-142.67;100.00
11468;BME280;5790;42.762;23.430;2023-01-27T03:35:57;61465.97;;;-142.67;100.00
11468;BME280;5790;42.762;23.430;2023-01-27T03:38:42;61465.97;;;-142.67;100.00
11468;BME280;5790;42.762;23.430;2023-01-27T03:41:26;61465.97;;;-142.67;100.00
11468;BME280;5790;42.762;23.430;2023-01-27T03:44:10;61465.97;;;-142.67;100.00
11468;BME280;5790;42.762;23.430;2023-01-27T03:46:56;61465.97;;;-142.67;100.00
11468;BME280;5790;42.762;23.430;2023-01-27T03:49:24;61465.97;;;-142.67;100.00
11468;BME280;5790;42.762;23.430;2023-01-27T03:51:51;61465.97;;;-142.67;100.00
11468;BME280;5790;42.762;23.430;2023-01-27T03:54:18;61465.97;;;-142.67;100.00
11468;BME280;5790;42.762;23.430;2023-01-27T03:56:46;61465.97;;;-142.67;100.00
11468;BME280;5790;42.762;23.430;2023-01-27T03:59:14;61465.97;;;-142.67;100.00
11468;BME280;5790;42.762;23.430;2023-01-27T04:01:41;61465.97;;;-142.67;100.00
11468;BME280;5790;42.762;23.430;2023-01-27T04:04:10;61465.97;;;-142.67;100.00
11468;BME280;5790;42.762;23.430;2023-01-27T04:06:54;61465.97;;;-142.67;100.00
11468;BME280;5790;42.762;23.430;2023-01-27T04:09:25;61465.97;;;-142.67;100.00
11468;BME280;5790;42.762;23.430;2023-01-27T04:11:53;61465.97;;;-142.67;100.00
11468;BME280;5790;42.762;23.430;2023-01-27T04:14:27;61465.97;;;-142.67;100.00
11468;BME280;5790;42.762;23.430;2023-01-27T04:16:56;61465.97;;;-142.67;100.00
11468;BME280;5790;42.762;23.430;2023-01-27T04:19:26;61465.97;;;-142.67;100.00
11468;BME280;5790;42.762;23.430;2023-01-27T04:21:53;61465.97;;;-142.67;100.00
11468;BME280;5790;42.762;23.430;2023-01-27T04:24:21;61465.97;;;-142.67;100.00
11468;BME280;5790;42.762;23.430;2023-01-27T04:26:51;61465.97;;;-142.67;100.00
11468;BME280;5790;42.762;23.430;2023-01-27T04:29:20;61465.97;;;-142.67;100.00
11468;BME280;5790;42.762;23.430;2023-01-27T04:31:47;61465.97;;;-142.67;100.00
11468;BME280;5790;42.762;23.430;2023-01-27T04:34:15;61465.97;;;-142.67;100.00
11468;BME280;5790;42.762;23.430;2023-01-27T04:36:45;61465.97;;;-142.67;100.00
11468;BME280;5790;42.762;23.430;2023-01-27T04:39:15;61465.97;;;-142.67;100.00
11468;BME280;5790;42.762;23.430;2023-01-27T04:41:43;61465.97;;;-142.67;100.00
11468;BME280;5790;42.762;23.430;2023-01-27T04:44:11;61465.97;;;-142.67;100.00
11468;BME280;5790;42.762;23.430;2023-01-27T04:46:38;61465.97;;;-142.67;100.00
11468;BME280;5790;42.762;23.430;2023-01-27T04:49:06;61465.97;;;-142.67;100.00
11468;BME280;5790;42.762;23.430;2023-01-27T04:51:34;61465.97;;;-142.67;100.00
11468;BME280;5790;42.762;23.430;2023-01-27T04:54:03;61465.97;;;-142.67;100.00
11468;BME280;5790;42.762;23.430;2023-01-27T04:56:32;61465.97;;;-142.67;100.00
11468;BME280;5790;42.762;23.430;2023-01-27T04:59:01;61465.97;;;-142.67;100.00
11468;BME280;5790;42.762;23.430;2023-01-27T05:01:29;61465.97;;;-142.67;100.00
11468;BME280;5790;42.762;23.430;2023-01-27T05:03:56;61465.97;;;-142.67;100.00
11468;BME280;5790;42.762;23.430;2023-01-27T05:06:24;61465.97;;;-142.67;100.00
11468;BME280;5790;42.762;23.430;2023-01-27T05:08:52;61465.97;;;-142.67;100.00
11468;BME280;5790;42.762;23.430;2023-01-27T05:11:21;61465.97;;;-142.67;100.00
11468;BME280;5790;42.762;23.430;2023-01-27T05:13:48;61465.97;;;-142.67;100.00
11468;BME280;5790;42.762;23.430;2023-01-27T05:16:17;61465.97;;;-142.67;100.00
11468;BME280;5790;42.762;23.430;2023-01-27T05:18:46;61465.97;;;-142.67;100.00
11468;BME280;5790;42.762;23.430;2023-01-27T05:21:15;61465.97;;;-142.67;100.00
11468;BME280;5790;42.762;23.430;2023-01-27T05:23:43;61465.97;;;-142.67;100.00
11468;BME280;5790;42.762;23.430;2023-01-27T05:26:11;61465.97;;;-142.67;100.00
11468;BME280;5790;42.762;23.430;2023-01-27T05:28:42;61465.97;;;-142.67;100.00
11468;BME280;5790;42.762;23.430;2023-01-27T05:31:11;61465.97;;;-142.67;100.00
11468;BME280;5790;42.762;23.430;2023-01-27T05:33:40;61465.97;;;-142.67;100.00
11468;BME280;5790;42.762;23.430;2023-01-27T05:36:10;61465.97;;;-142.67;100.00
11468;BME280;5790;42.762;23.430;2023-01-27T05:38:38;61465.97;;;-142.67;100.00
11468;BME280;5790;42.762;23.430;2023-01-27T05:41:07;61465.97;;;-142.67;100.00
11468;BME280;5790;42.762;23.430;2023-01-27T05:43:41;61465.97;;;-142.67;100.00
11468;BME280;5790;42.762;23.430;2023-01-27T05:46:10;61465.97;;;-142.67;100.00
11468;BME280;5790;42.762;23.430;2023-01-27T05:48:39;61465.97;;;-142.67;100.00
11468;BME280;5790;42.762;23.430;2023-01-27T05:51:07;61465.97;;;-142.67;100.00
11468;BME280;5790;42.762;23.430;2023-01-27T05:53:35;61465.97;;;-142.67;100.00
11468;BME280;5790;42.762;23.430;2023-01-27T05:56:03;61465.97;;;-142.67;100.00
11468;BME280;5790;42.762;23.430;2023-01-27T05:58:31;61465.97;;;-142.67;100.00
11468;BME280;5790;42.762;23.430;2023-01-27T06:01:08;61465.97;;;-142.67;100.00
11468;BME280;5790;42.762;23.430;2023-01-27T06:03:36;61465.97;;;-142.67;100.00
11468;BME280;5790;42.762;23.430;2023-01-27T06:06:04;61465.97;;;-142.67;100.00
11468;BME280;5790;42.762;23.430;2023-01-27T06:08:33;61465.97;;;-142.67;100.00
11468;BME280;5790;42.762;23.430;2023-01-27T06:11:01;61465.97;;;-142.67;100.00
11468;BME280;5790;42.762;23.430;2023-01-27T06:13:29;61465.97;;;-142.67;100.00
11468;BME280;5790;42.762;23.430;2023-01-27T06:15:56;61465.97;;;-142.67;100.00
11468;BME280;5790;42.762;23.430;2023-01-27T06:18:25;61465.97;;;-142.67;100.00
11468;BME280;5790;42.762;23.430;2023-01-27T06:20:56;61465.97;;;-142.67;100.00
11468;BME280;5790;42.762;23.430;2023-01-27T06:23:24;61465.97;;;-142.67;100.00
11468;BME280;5790;42.762;23.430;2023-01-27T06:25:52;61465.97;;;-142.67;100.00
11468;BME280;5790;42.762;23.430;2023-01-27T06:28:20;61465.97;;;-142.67;100.00
11468;BME280;5790;42.762;23.430;2023-01-27T06:30:48;61465.97;;;-142.67;100.00
11468;BME280;5790;42.762;23.430;2023-01-27T06:33:16;61465.97;;;-142.67;100.00
11468;BME280;5790;42.762;23.430;2023-01-27T06:35:45;61465.97;;;-142.67;100.00
11468;BME280;5790;42.762;23.430;2023-01-27T06:38:12;61465.97;;;-142.67;100.00
11468;BME280;5790;42.762;23.430;2023-01-27T06:40:40;61465.97;;;-142.67;100.00
11468;BME280;5790;42.762;23.430;2023-01-27T06:43:11;61465.97;;;-142.67;100.00
11468;BME280;5790;42.762;23.430;2023-01-27T06:45:39;61465.97;;;-142.67;100.00
11468;BME280;5790;42.762;23.430;2023-01-27T06:48:06;61465.97;;;-142.67;100.00
11468;BME280;5790;42.762;23.430;2023-01-27T06:50:34;61465.97;;;-142.67;100.00
11468;BME280;5790;42.762;23.430;2023-01-27T06:53:04;61465.97;;;-142.67;100.00
11468;BME280;5790;42.762;23.430;2023-01-27T06:55:33;61465.97;;;-142.67;100.00
11468;BME280;5790;42.762;23.430;2023-01-27T06:58:06;61465.97;;;-142.67;100.00
11468;BME280;5790;42.762;23.430;2023-01-27T07:00:33;61465.97;;;-142.67;100.00
11468;BME280;5790;42.762;23.430;2023-01-27T07:03:01;61465.97;;;-142.67;100.00
11468;BME280;5790;42.762;23.430;2023-01-27T07:05:28;61465.97;;;-142.67;100.00
11468;BME280;5790;42.762;23.430;2023-01-27T07:07:55;61465.97;;;-142.67;100.00
11468;BME280;5790;42.762;23.430;2023-01-27T07:10:24;61465.97;;;-142.67;100.00
11468;BME280;5790;42.762;23.430;2023-01-27T07:12:52;61465.97;;;-142.67;100.00
11468;BME280;5790;42.762;23.430;2023-01-27T07:15:29;61465.97;;;-142.67;100.00
11468;BME280;5790;42.762;23.430;2023-01-27T07:17:57;61465.97;;;-142.67;100.00
11468;BME280;5790;42.762;23.430;2023-01-27T07:20:24;61465.97;;;-142.67;100.00
11468;BME280;5790;42.762;23.430;2023-01-27T07:22:55;61465.97;;;-142.67;100.00
11468;BME280;5790;42.762;23.430;2023-01-27T07:25:24;61465.97;;;-142.67;100.00
11468;BME280;5790;42.762;23.430;2023-01-27T07:27:52;61465.97;;;-142.67;100.00
11468;BME280;5790;42.762;23.430;2023-01-27T07:30:19;61465.97;;;-142.67;100.00
11468;BME280;5790;42.762;23.430;2023-01-27T07:32:46;61465.97;;;-142.67;100.00
11468;BME280;5790;42.762;23.430;2023-01-27T07:35:15;61465.97;;;-142.67;100.00
11468;BME280;5790;42.762;23.430;2023-01-27T07:37:42;61465.97;;;-142.67;100.00
11468;BME280;5790;42.762;23.430;2023-01-27T07:40:10;61465.97;;;-142.67;100.00
11468;BME280;5790;42.762;23.430;2023-01-27T07:42:40;61465.97;;;-142.67;100.00
11468;BME280;5790;42.762;23.430;2023-01-27T07:45:08;61465.97;;;-142.67;100.00
11468;BME280;5790;42.762;23.430;2023-01-27T07:47:35;61465.97;;;-142.67;100.00
11468;BME280;5790;42.762;23.430;2023-01-27T07:50:03;61465.97;;;-142.67;100.00
11468;BME280;5790;42.762;23.430;2023-01-27T07:52:31;61465.97;;;-142.67;100.00
11468;BME280;5790;42.762;23.430;2023-01-27T07:54:59;61465.97;;;-142.67;100.00
11468;BME280;5790;42.762;23.430;2023-01-27T07:57:26;61465.97;;;-142.67;100.00
11468;BME280;5790;42.762;23.430;2023-01-27T07:59:55;61465.97;;;-142.67;100.00
11468;BME280;5790;42.762;23.430;2023-01-27T08:02:23;61465.97;;;-142.67;100.00
11468;BME280;5790;42.762;23.430;2023-01-27T08:04:53;61465.97;;;-142.67;100.00
11468;BME280;5790;42.762;23.430;2023-01-27T08:07:21;61465.97;;;-142.67;100.00
11468;BME280;5790;42.762;23.430;2023-01-27T08:09:48;61465.97;;;-142.67;100.00
11468;BME280;5790;42.762;23.430;2023-01-27T08:12:16;61465.97;;;-142.67;100.00
11468;BME280;5790;42.762;23.430;2023-01-27T08:14:44;61465.97;;;-142.67;100.00
11468;BME280;5790;42.762;23.430;2023-01-27T08:17:13;61465.97;;;-142.67;100.00
11468;BME280;5790;42.762;23.430;2023-01-27T08:19:41;61465.97;;;-142.67;100.00
11468;BME280;5790;42.762;23.430;2023-01-27T08:22:09;61465.97;;;-142.67;100.00
11468;BME280;5790;42.762;23.430;2023-01-27T08:24:36;61465.97;;;-142.67;100.00
11468;BME280;5790;42.762;23.430;2023-01-27T08:27:03;61465.97;;;-142.67;100.00
11468;BME280;5790;42.762;23.430;2023-01-27T08:29:31;61465.97;;;-142.67;100.00
11468;BME280;5790;42.762;23.430;2023-01-27T08:31:58;61465.97;;;-142.67;100.00
11468;BME280;5790;42.762;23.430;2023-01-27T08:34:27;61465.97;;;-142.67;100.00
11468;BME280;5790;42.762;23.430;2023-01-27T08:36:54;61465.97;;;-142.67;100.00
11468;BME280;5790;42.762;23.430;2023-01-27T08:39:22;61465.97;;;-142.67;100.00
11468;BME280;5790;42.762;23.430;2023-01-27T08:41:49;61465.97;;;-142.67;100.00
11468;BME280;5790;42.762;23.430;2023-01-27T08:44:16;61465.97;;;-142.67;100.00
11468;BME280;5790;42.762;23.430;2023-01-27T08:46:43;61465.97;;;-142.67;100.00
11468;BME280;5790;42.762;23.430;2023-01-27T08:49:11;61465.97;;;-142.67;100.00
11468;BME280;5790;42.762;23.430;2023-01-27T08:51:41;61465.97;;;-142.67;100.00
11468;BME280;5790;42.762;23.430;2023-01-27T08:54:09;61465.97;;;-142.67;100.00
11468;BME280;5790;42.762;23.430;2023-01-27T08:56:36;61465.97;;;-142.67;100.00
11468;BME280;5790;42.762;23.430;2023-01-27T08:59:03;61465.97;;;-142.67;100.00
11468;BME280;5790;42.762;23.430;2023-01-27T09:01:30;61465.97;;;-142.67;100.00
11468;BME280;5790;42.762;23.430;2023-01-27T09:03:58;61465.97;;;-142.67;100.00
11468;BME280;5790;42.762;23.430;2023-01-27T09:06:25;61465.97;;;-142.67;100.00
11468;BME280;5790;42.762;23.430;2023-01-27T09:08:54;61465.97;;;-142.67;100.00
11468;BME280;5790;42.762;23.430;2023-01-27T09:11:35;61465.97;;;-142.67;100.00
11468;BME280;5790;42.762;23.430;2023-01-27T09:14:03;61465.97;;;-142.67;100.00
11468;BME280;5790;42.762;23.430;2023-01-27T09:16:31;61465.97;;;-142.67;100.00
11468;BME280;5790;42.762;23.430;2023-01-27T09:18:58;61465.97;;;-142.67;100.00
11468;BME280;5790;42.762;23.430;2023-01-27T09:21:26;61465.97;;;-142.67;100.00
11468;BME280;5790;42.762;23.430;2023-01-27T09:23:55;61465.97;;;-142.67;100.00
11468;BME280;5790;42.762;23.430;2023-01-27T09:26:23;61465.97;;;-142.67;100.00
11468;BME280;5790;42.762;23.430;2023-01-27T09:28:50;61465.97;;;-142.67;100.00
11468;BME280;5790;42.762;23.430;2023-01-27T09:31:17;61465.97;;;-142.67;100.00
11468;BME280;5790;42.762;23.430;2023-01-27T09:33:45;61465.97;;;-142.67;100.00
11468;BME280;5790;42.762;23.430;2023-01-27T09:36:16;61465.97;;;-142.67;100.00
11468;BME280;5790;42.762;23.430;2023-01-27T09:38:47;61465.97;;;-142.67;100.00
11468;BME280;5790;42.762;23.430;2023-01-27T09:44:56;61465.97;;;-142.67;100.00
11468;BME280;5790;42.762;23.430;2023-01-27T09:47:35;61465.97;;;-142.67;100.00
11468;BME280;5790;42.762;23.430;2023-01-27T09:50:24;61465.97;;;-142.67;100.00
11468;BME280;5790;42.762;23.430;2023-01-27T09:55:52;61465.97;;;-142.67;100.00
11468;BME280;5790;42.762;23.430;2023-01-27T09:58:33;61465.97;;;-142.67;100.00
11468;BME280;5790;42.762;23.430;2023-01-27T10:01:08;61465.97;;;-142.67;100.00
11468;BME280;5790;42.762;23.430;2023-01-27T10:03:53;61465.97;;;-142.67;100.00
11468;BME280;5790;42.762;23.430;2023-01-27T10:06:38;61465.97;;;-142.67;100.00
11468;BME280;5790;42.762;23.430;2023-01-27T10:09:28;61465.97;;;-142.67;100.00
11468;BME280;5790;42.762;23.430;2023-01-27T10:12:13;61465.97;;;-142.67;100.00
11468;BME280;5790;42.762;23.430;2023-01-27T10:14:53;61465.97;;;-142.67;100.00
11468;BME280;5790;42.762;23.430;2023-01-27T10:17:33;61465.97;;;-142.67;100.00
11468;BME280;5790;42.762;23.430;2023-01-27T10:20:17;61465.97;;;-142.67;100.00
11468;BME280;5790;42.762;23.430;2023-01-27T10:22:49;61465.97;;;-142.67;100.00
11468;BME280;5790;42.762;23.430;2023-01-27T10:25:30;61465.97;;;-142.67;100.00
11468;BME280;5790;42.762;23.430;2023-01-27T10:28:08;61465.97;;;-142.67;100.00
11468;BME280;5790;42.762;23.430;2023-01-27T10:30:41;61465.97;;;-142.67;100.00
11468;BME280;5790;42.762;23.430;2023-01-27T10:33:15;61465.97;;;-142.67;100.00
11468;BME280;5790;42.762;23.430;2023-01-27T10:35:50;61465.97;;;-142.67;100.00
11468;BME280;5790;42.762;23.430;2023-01-27T10:38:31;61465.97;;;-142.67;100.00
11468;BME280;5790;42.762;23.430;2023-01-27T10:41:08;61465.97;;;-142.67;100.00
11468;BME280;5790;42.762;23.430;2023-01-27T11:00:05;73664.06;;;-142.66;100.00
11468;BME280;5790;42.762;23.430;2023-01-27T11:02:42;73645.69;;;-142.66;100.00
11468;BME280;5790;42.762;23.430;2023-01-27T11:05:17;73645.69;;;-142.66;100.00
11468;BME280;5790;42.762;23.430;2023-01-27T11:07:48;73657.94;;;-142.66;100.00
11468;BME280;5790;42.762;23.430;2023-01-27T11:10:19;73662.00;;;-142.66;100.00
11468;BME280;5790;42.762;23.430;2023-01-27T11:12:50;73680.38;;;-142.66;100.00
11468;BME280;5790;42.762;23.430;2023-01-27T11:15:25;73682.44;;;-142.66;100.00
11468;BME280;5790;42.762;23.430;2023-01-27T11:17:58;73684.47;;;-142.66;100.00
11468;BME280;5790;42.762;23.430;2023-01-27T11:20:29;73678.34;;;-142.66;100.00
11468;BME280;5790;42.762;23.430;2023-01-27T11:23:04;73670.19;;;-142.66;100.00
11468;BME280;5790;42.762;23.430;2023-01-27T11:25:47;73678.34;;;-142.66;100.00
11468;BME280;5790;42.762;23.430;2023-01-27T11:28:24;73668.13;;;-142.66;100.00
11468;BME280;5790;42.762;23.430;2023-01-27T11:31:01;73651.81;;;-142.66;100.00
11468;BME280;5790;42.762;23.430;2023-01-27T11:33:44;73641.59;;;-142.66;100.00
11468;BME280;5790;42.762;23.430;2023-01-27T11:36:13;73662.00;;;-142.66;100.00
11468;BME280;5790;42.762;23.430;2023-01-27T11:38:41;73670.19;;;-142.66;100.00
11468;BME280;5790;42.762;23.430;2023-01-27T11:41:08;73651.81;;;-142.66;100.00
11468;BME280;5790;42.762;23.430;2023-01-27T11:43:36;73676.31;;;-142.66;100.00
11468;BME280;5790;42.762;23.430;2023-01-27T11:46:12;73664.06;;;-142.66;100.00
11468;BME280;5790;42.762;23.430;2023-01-27T11:48:41;73668.13;;;-142.66;100.00
11468;BME280;5790;42.762;23.430;2023-01-27T11:51:17;73676.31;;;-142.66;100.00
11468;BME280;5790;42.762;23.430;2023-01-27T11:53:49;73688.56;;;-142.66;100.00
11468;BME280;5790;42.762;23.430;2023-01-27T11:56:18;73690.59;;;-142.66;100.00
11468;BME280;5790;42.762;23.430;2023-01-27T11:58:53;73684.47;;;-142.66;100.00
11468;BME280;5790;42.762;23.430;2023-01-27T12:01:37;73706.91;;;-142.66;100.00
11468;BME280;5790;42.762;23.430;2023-01-27T12:04:12;73700.78;;;-142.66;100.00
11468;BME280;5790;42.762;23.430;2023-01-27T12:06:43;73686.50;;;-142.66;100.00
11468;BME280;5790;42.762;23.430;2023-01-27T12:09:29;73678.34;;;-142.66;100.00
11468;BME280;5790;42.762;23.430;2023-01-27T12:12:18;73668.13;;;-142.66;100.00
11468;BME280;5790;42.762;23.430;2023-01-27T12:14:47;73690.59;;;-142.66;100.00
11468;BME280;5790;42.762;23.430;2023-01-27T12:17:27;73670.19;;;-142.66;100.00
11468;BME280;5790;42.762;23.430;2023-01-27T12:19:58;73668.13;;;-142.66;100.00
11468;BME280;5790;42.762;23.430;2023-01-27T12:22:30;73674.25;;;-142.66;100.00
11468;BME280;5790;42.762;23.430;2023-01-27T12:25:01;73682.44;;;-142.66;100.00
11468;BME280;5790;42.762;23.430;2023-01-27T12:27:30;73688.56;;;-142.66;100.00
11468;BME280;5790;42.762;23.430;2023-01-27T12:30:05;73696.72;;;-142.66;100.00
11468;BME280;5790;42.762;23.430;2023-01-27T12:32:39;73696.72;;;-142.66;100.00
11468;BME280;5790;42.762;23.430;2023-01-27T12:35:18;73688.56;;;-142.66;100.00
11468;BME280;5790;42.762;23.430;2023-01-27T12:37:47;73700.78;;;-142.66;100.00
11468;BME280;5790;42.762;23.430;2023-01-27T12:40:19;73688.56;;;-142.66;100.00
11468;BME280;5790;42.762;23.430;2023-01-27T12:42:48;73680.38;;;-142.66;100.00
11468;BME280;5790;42.762;23.430;2023-01-27T12:45:22;73698.75;;;-142.66;100.00
11468;BME280;5790;42.762;23.430;2023-01-27T12:48:00;73680.38;;;-142.66;100.00
11468;BME280;5790;42.762;23.430;2023-01-27T12:50:29;73686.50;;;-142.66;100.00
11468;BME280;5790;42.762;23.430;2023-01-27T12:53:11;73680.38;;;-142.66;100.00
11468;BME280;5790;42.762;23.430;2023-01-27T12:55:41;73680.38;;;-142.66;100.00
11468;BME280;5790;42.762;23.430;2023-01-27T12:58:30;73655.88;;;-142.66;100.00
11468;BME280;5790;42.762;23.430;2023-01-27T13:01:00;73664.06;;;-142.66;100.00
11468;BME280;5790;42.762;23.430;2023-01-27T13:03:35;73664.06;;;-142.66;100.00
11468;BME280;5790;42.762;23.430;2023-01-27T13:06:04;73655.88;;;-142.66;100.00
11468;BME280;5790;42.762;23.430;2023-01-27T13:08:32;73666.09;;;-142.66;100.00
11468;BME280;5790;42.762;23.430;2023-01-27T13:11:01;73655.88;;;-142.66;100.00